Race Results for
Tucson Bicycle Classic
Tucson, AZ
(Event Information)
Individual Time Trial on 03/28/2008

Note: Ranking points are NOT upgrade points. An explanation of ranking points can be found here.


Men - Masters - MR - 35-44

 Place Points NameCity, StateTime USAC #BibTeam
1540.00Albert Senft (1 - Cat1)   Albuquerque, NM0:07:36 32168  432 Colavita New Mexico
2541.79Scott Biaggi   Tucson, AZ0:07:42 140879  406 GST Racing
3543.57Brian Palen   Seattle, WA0:07:42 186715  431 Colavita New Mexico
4545.36Jim Silverman   Flagstaff, AZ0:07:46 183486  417 Rideclean
5547.14Scott Baker   Oro Valley, AZ0:07:55 82541  405 GST Racing
6548.93Charles Royalty   Tempe, AZ0:08:07 153317  429 San Tan Racing / Paragon
7550.71Walter Vaughan   Vail, AZ0:08:11 56619  401 Summit Velo
8552.50Jesus Lamb   Tucson, AZ0:08:11 191857  418 GST Racing
9554.29Adrian Schumacher   Tucson, AZ0:08:13 140853  433 Presteza
10556.07Kyle Akin   Tucson, AZ0:08:21 203522  412 Team Rhino
11557.86Kurt Kroese   Tucson, AZ0:08:21 190256  413 GST Racing
12559.64Chris McGee   Golden, CO0:08:25 23458  427 Fuentesdesign
13561.43Keith Ashmore   Durango, CO0:08:25 75512  414 Colavita NM
14563.21Richard Biocca   Tucson, AZ0:08:26 210759  408 Eclipse Racing
15565.00Bryan Antol   Flagstaff, AZ0:08:31 1806  430 RIDECLEAN
16566.79Todd Mion   Greenville , SC0:08:32 50781  404 RIDECLEAN
17568.57Jeff Parker   Tucson, AZ0:08:36 184668  420 ECLIPSE RACING
18570.36Mark Wald-Hopkins   Los Alamos, NM0:08:37 109626  411 Bike -n- Sport
19572.14Joseph Rudman   Boulder, CO0:08:37 30810  416 NA
20573.93Jack Phillips   Tucson, AZ0:08:39 188117  422 Eclipse Racing
21575.71Michael Middleton   Tucson, AZ0:08:39 116748  410 Rhino
22577.50Jesus Zapata   El Paso, TX0:08:49 69395  419 colavita new mexico
23579.29Dave Rudnicki (1 - Cat4)   Colorado Springs, CO0:08:51 252581  424 Independent
24581.07Dan Distefano   Tucson, AZ0:08:59 89997  426 Eclipse Racing
25582.86Rene Ortega   Tucson, AZ0:09:06 127318  409 Team Rhino
26584.64Daryll McKenzie   Marana, AZ0:09:08 138171  425 Eclipse Racing
27586.43Rick Cimaglia   Durango, CO0:09:13 51046  407 RideClean
28588.21Travis Huxman   Tucson, AZ0:09:32 192080  403 Eclipse Racing
29590.00John Dehnert   Tucson, AZ0:09:37 27907  415 Ride Clean

Men - Masters - MR - 45-54

 Place Points NameCity, StateTime USAC #BibTeam
1540.00Mark Fosenburg   Phoenix, AZ0:07:57 143238  460 ECFA/Honeywell
2541.61John Simonson   Tucson, AZ0:07:58 197428  466 GST Racing
3543.23Jay Guyot   Tucson, AZ0:08:06 126818  467 GST Racing
4544.84David Bixby   Phoenix, AZ0:08:08 125651  473 Team RPM
5546.45Jon Black   Tucson, AZ0:08:16 154067  464 GST
6548.06John Johnson   Tucson, AZ0:08:16 17974  465 Southwest Hand Cycling Team
7549.68Donald Lewis   Tucson, AZ0:08:22 21068  471 Team Rhino
8551.29Jonathan Roberts (1 - Cat3)   Tucson, AZ0:08:26 108768  463 South West Hand
9552.90Paul O'Brien   Tucson, AZ0:08:27 129819  456 NA
10James JANZEN   0:08:27  468 bicisport
11556.13Steve Morton   Anaheim, CA0:08:29 60231  452 GST Racing
12557.74Alex Brakmo   Tucson, AZ0:08:34 4607  480 Norson-VH
13559.35Fred Hoblit (1 - Cat2)   Valencia, CA0:08:35 16360  469 Santa Clarita Velo
14560.97Kiral Thompson   Tucson, AZ0:08:38 204637  461 Summit Velo
15562.58Edward Cortright (2 - Cat3)   Tucson, AZ0:08:41 221110  470 
16Ray DUNN   0:08:41  454 GST Racing
17565.81Scott Hendricks   Lakewood, CO0:08:43 55246  453 Vitamin Cottage Cycling Team
18567.42Thomas Kachelmeyer   Royal Oak, MI0:08:45 18395  451 Team Giant -MI
19569.03Joseph Suida   Tucson, AZ0:08:45 185082  462 Southwest Hand cycling team
20570.65David French   Tucson, AZ0:08:46 53871  474 Southwest Hand Cycling Team
21572.26Alexander Koss   Flagstaff, AZ0:08:47 236463  481 Summit Velo
22573.87Matthias Feurer   Tucson, AZ0:08:49 204102  459 Team Rhino
23575.48Andrew Hosterman   Tucson, AZ0:08:50 48867  479 Southwest Hand Cycling Team
24577.10Andrie Duvall   Tucson, AZ0:08:58 65527  478 Summit Velo
25578.71Dale Luedtke   Oceanside, CA0:09:00 47262  477 UC Cyclery/JW Floor
26580.32Michael Durkin (1 - Cat5)   Tucson, AZ0:09:07 42226  457 NA
27581.94Michael Jones   Oro Valley, AZ0:09:08 133777  458 Team Rhino
29583.55Dale Crockatt   Tucson, AZ0:09:12 230830  476 unattached
30Steve ZOUMANAS   0:09:14  483 AonaZ/SDBC
31586.77Dave Prugh   Sayre, PA0:09:20 261855  475 Corning Racing
32588.39Donald Ward   El Paso, TX0:09:22 49826  472 TEAM EL PASO
33590.00Alan Fischer   Tucson, AZ0:11:56 45330  482 Jim Click Arizona Cycling

Men - Masters - MR - 55-99

 Place Points NameCity, StateTime USAC #BibTeam
1540.00Donald Williams   Los Angeles, CA0:08:18 38334  750 Bicycle Haus Racing
2542.78Eric Nelson   Cave Creek, AZ0:08:35 65059  747 Team RPM
3545.56Duane Mulvaney   Casa Grande, AZ0:08:35 77005  748 Landis/Trek
4548.33James Ostrem   Tucson, AZ0:08:51 226520  744 Team RPM
5551.11Benjamin Maciel   Heber, CA0:08:56 275832  755 Ma Linda
6553.89Art McWhirter   Kerrville, TX0:09:04 223974  756 Colavita AZ
7556.67Donald Goodkin   Healdsburg, CA0:09:16 258832  749 Dolce Vita Cycling
8Roy QUADE   0:09:21  739 NA
9562.22Glenn Harris   Tucson, AZ0:09:25 180527  746 Thunder Mountain Cycling
10565.00Dennis Krueger   Tucson, AZ0:09:26 219732  751 SUMMIT VELO
11567.78Jay Hirsch   Tucson, AZ0:09:39 126328  745 Southwest Hand Cycling Team
12martin WATSON   0:09:40  743 bicisport
13573.33 Nippy (Edward) Feldhake   Tucson, AZ0:10:00 62833  742 Presteza
14576.11Tom Overdeck   Paradise Valley, AZ0:10:06 207176  737 Procon/1st National Bank AZ
15578.89Brian McQuiston   Tucson, AZ0:10:09 103145  753 Jim Click Racing Team
16581.67Roger Springer   Atascadero, CA0:10:14 198617  740 San Diego Cycle-Vets
17584.44Arland Crump   Tucson, AZ0:10:17 225875  757 none
18587.22Richard Ellwanger   Tucson, AZ0:10:41 272136  741 Aggress
19590.00Terry Johnson   Show Low, AZ0:11:24 18053  738 unattached

Men - Masters - MR - 65-99

 Place Points NameCity, StateTime USAC #BibTeam
1540.00William Barnes   Tucson, AZ0:09:35 170417  628 RPM
2548.33Ralph Duckett   Tucson, AZ0:09:38 50589  629 SOUTHWEST HAND
3556.67Jim Moutray   Sonoita, AZ0:09:58 181576  630 IC 3
4565.00Jacobo Melcer   Bonita, CA0:10:28 207024  632 San Diego Cyclo-Vets
5Dwight GILLESPIE   0:10:45  633 NA
6581.67Al Ravicher (1 - Cat4)   St George, UT0:11:22 250638  635 Team Pro Cyclery
7Jerry TETREAULT   0:12:10  631 Pasadena Athletic Association

Men - Masters - MR - 70-99

 Place Points NameCity, StateTime USAC #BibTeam
1536.00Franz Hammer   Oro Valley, AZ0:08:31 45423  642 First Mortgage
2563.00David Deichman   Tucson, AZ0:10:37 56635  643 saguaro velo
3Robert PAGANINI   0:11:18  641 Pasadena Athletic Association

Men - Pro/Cat 1

 Place Points NameCity, StateTime USAC #BibTeam
1532.69Joshua Liberles   Portland, OR0:07:35 208558  18 Colavita New Mexico p/b JNF Enterprises
2534.33Drew Miller   Flagstaff, AZ0:07:38 52030  22 Landis Trek VW
3535.96Phillip Gaimon (1 - Cat1)   North Hollywood, CA0:07:43 211475  Fiordifrutta
4David SALOMON   0:07:45  26 P&S-Specialized
5539.24David Glick   Tucson, AZ0:07:50 175967  24 OrganicAthlete's Team Vegan
6540.88Ryan Blickem   Las Cruces, NM0:07:53 83581  Landis Trek
7542.51Nicholaus Schreiber   Tucson, AZ0:07:55 93359  11 Landis/Trek
8544.15Bryson Perry   Sandy, UT0:07:56 89388  32 American R.A.D.D. presented by Agel
9545.79Ryan Baumann (2 - Cat1)   Green Bay, WI0:07:59 207813  CRCA/Sakonnet Technology U25
10547.43Joshua Bartlett   Windham, NH0:07:59 156797  17 Team Rubicon
11549.06Jacob Rubelt   Tucson, AZ0:08:00 79833  20 Ride Clean
12550.70Brian Forbes   Mesa, AZ0:08:04 65615  36 Ride Clean
13552.34Timothy Carolan   Tucson, AZ0:08:04 55904  Landis Trek
14553.98Thomas Nelson   La Mesa, CA0:08:08 185399  American R.A.D.D. presented by Agel
15555.61Kyle Colavito   Tucson, AZ0:08:12 190677  14 RIDECLEAN
16557.25Brian Lemke   Cave Creek, AZ0:08:19 59550  33 Landis/Trek
17Gilberto PORRAS   0:08:20  21 Rica Burguer
18Rodolfo AVILA   0:08:22  P&S-Specialized
19Bryson BOWERS   0:08:22  31 DeWalt
20Antonio ALDAPE   0:08:24  34 P&S-Specialized
21Carlos HERNANDEZ   0:08:26  29 P&S-Specialized
22Nick FRIESEN   0:08:28  10 The Bike Shop
23Philip GALE   0:08:29  Hennebont Cyclisme
24570.35Luis-Alejandro Zamudio   Chula Vista, CA0:08:30 204879  13 American R.A.D.D. presented by Agel
25Juan Pablo VILLELA   0:08:30  16 Rica Burguer
26Derrek IVEY   0:08:31  23 MAZURCOACHING.COM
27575.26Christian Walker   Goleta, CA0:08:33 50894  27 Time Factory Team
28576.90Jaime Gandara   El Paso, TX0:08:35 130311  19 TEAM INFERNO PRO RACING
29Alex BHOGAL   0:08:37  35 MAZURCOACHING.COM
30Julien FILLION   0:08:42  15 NA
31581.81Philip Voorhees   Costa Mesa, CA0:08:48 23047  Unattached
32583.45David Reid   Mesa, AZ0:08:57 60513  25 Landis/Trek
33585.09Ryan Knapp   Columbus, IN0:09:06 161263  Alderfer Bergen
34Charles THIBAULT   0:09:08  28 EVA-DEVINCI
35588.36Martin Adamczyk   San Diego, CA0:09:11 115698  12 Lot/Polish Airlines
36Carlos LOPEZ   0:09:26  30 P&S-Specialized

Men - Cat 2

 Place Points NameCity, StateTime USAC #BibTeam
1540.00David Swanson   Tucson, AZ0:07:49 195946  72 SummitVelo
2Brandon THROOP   0:08:00  80 MAZURCOACHING.COM
3543.12Daniel Vasichek   Great Falls, MT0:08:04 236861  73 RideClean
4544.69Scott Hubbard   Albuquerque, NM0:08:12 190601  56 KHSnm.com Cycling Team
5546.25Robert Ball   Peoria, AZ0:08:14 204549  58 Swiss American
6547.81Emiliano Jordan   Portland, OR0:08:18 139734  71 Colavita NM pb JNF Enterprises
7549.38Scott Conover   Mesa, AZ0:08:23 7593  55 HLHAP
8550.94James Simpson   Scottsdale, AZ0:08:24 180842  66 swiss american racing
9552.50Craig Streit   Scottsdale, AZ0:08:28 197252  75 Procon/1st National Bank of AZ
10554.06Christian Helmig   Highland Village, TX0:08:29 245316  77 Metro Volkswagen Cycling Team
11555.62Daniel Naef   Tucson, AZ0:08:30 212788  74 Procon/ 1st National bank of AZ
12557.19Stephen Slabodnick   Chandler, AZ0:08:31 192679  53 Landis Trek
13558.75Kyle Ward   Tucson, AZ0:08:32 230240  61 Team WM
14Jesse DEKREY   0:08:34  65 Kahala-Lagrange
15561.88Brian Cornelius   Tucson, AZ0:08:49 178293  78 Team WM
16563.44Frank Barnes   Tucson, AZ0:08:50 221446  70 Summit Velo
17565.00Jim Woodburne   Phoenix, AZ0:08:52 236370  64 Swiss American
18566.56Matthew Jones   Lakewood, CO0:08:53 225189  82 Crazy Cat Cyclery
19568.12Steven Ballinger   Albuquerque, NM0:08:54 164768  84 Colivita NM
20569.69Brian Keller   Newport Beach, CA0:08:54 203805  79 Cycles Veloce
21571.25Matthew Holecko   Scottsdale, AZ0:08:57 148285  59 Procon/First National Bank
22572.81Jacob Boyce   Duluth, MN0:09:01 227560  67 St. Olaf
23574.38Ryan Haug   Seymour, CT0:09:05 219731  57 Connecticut Coast Cycling
24Marc-Olivier JUSSAUME   0:09:06  60 mazurcoaching.com
25577.50Sean Noonan   Urbandale, IA0:09:07 206025  54 Carleton College
26579.06Victor Weaver   Tucson, AZ0:09:09 51196  51 Knox Velo
27580.62Bob Pongratz   Scottsdale, AZ0:09:09 28412  81 Ride Clean
28582.19Christopher Mosora   Lisle, IL0:09:13 199219  76 Lucas Oil Cycling
29583.75Henry Swinty   Fort Wayne, IN0:09:14 48628  68 Rica Burger
30585.31John Stadick   Santa Fe, NM0:09:15 154386  63 Colavita New Mexico
31586.88Robert Schmidt   Athens, NY0:09:36 204487  83 CCNS Pedal Power
32588.44John Farris   Lebanon, NH0:09:40 207244  62 Unattached
33Graeme THOMSON   0:12:41  69 bicisport

Men - Cat 3

 Place Points NameCity, StateTime USAC #BibTeam
1540.00Evan Bowman   Oakland, CA0:08:12 257006  129 Team Waste Management
2541.28Matt Beck   Albuquerque, NM0:08:15 258497  115 Nob Hill Velo
3542.56Thomas Jondall   Rancho Santa Margarita, CA0:08:21 243091  104 Ride Clean
4543.85Dan Shannon   Tucson, AZ0:08:32 170966  132 Summit Velo
5545.13Shawn Daly   Tucson, AZ0:08:36 205616  108 southwest hand
6546.41Sean Peck   Durango, CO0:08:38 135664  141 3D Racing
7547.69Andrew Jorgenson   Tucson, AZ0:08:42 187103  138 Racelab u-23
8548.97Jayson Middlemiss   Colorado Springs, CO0:08:43 232818  126 mafia racing
9550.26Jason Mustonen   Mesa, AZ0:08:44 236130  127 Procon/1st National Bank of AZ
10551.54Paul Kealey   Tucson, AZ0:08:45 151304  111 Summit Velo
11552.82Neil Becwar   Tucson, AZ0:08:48 178596  112 Presteza
12554.10Brad Bochart   Tempe, AZ0:08:52 176618  137 ProCon /1st National Bank of AZ
13555.38Brian Ten Eyck   Tucson, AZ0:08:53 211013  101 Aggress
14Nick KELLER   0:08:54  140 -
15557.95Tod Smith   Scottsdale, AZ0:08:57 249644  103 Team Waste Management
16559.23Jonathan Rath   Albuquerque, NM0:08:58 50789  122 NMBRA
17560.51Travis Waldron   Mesa, AZ0:08:59 148770  102 Bicycle Haus Racing
18561.79Cody Miller   Phoenix, AZ0:09:03 204196  133 Waste Management
19563.08Matthew Jones   Oro Valley, AZ0:09:08 153282  116 Eclipse Racing
20564.36Lawrence Warbasse   Traverse City, MI0:09:08 215167  117 Priority Health Cycling
21565.64Jan Hagenbrock   San Diego, CA0:09:08 226513  128 UC Cyclery/JW Floors
22566.92Adam Pacal   San Diego, CA0:09:10 203516  139 UC Cyclery/JW Floors
23568.21Jeff Zygo   Scottsville, NY0:09:13 232379  125 Preferred Care
24Kathryn BERTINE   0:09:13  118 Team Sport Beans/NTTC
25570.77David Raker   Newhall, CA0:09:14 29057  130 Santa Clarita Velo
26572.05Michael Cline   Flagstaff, AZ0:09:16 108702  113 HLHAP
27573.33Joe Susco   Mesa, AZ0:09:28 222729  124 Unattached
28574.62Estevan Sanchez   Flagstaff, AZ0:09:30 152919  107 Unattached
29Josh EAKINS   0:09:34  120 Team Rhino
30577.18Daniel Perez   El Paso, TX0:09:37 220957  131 Crazy Cat Cyclery
31578.46Carlos Leyva   National City, CA0:09:37 239645  134 Aqval AL2 SDBC
32579.74Juan Pablo Fierro-Zaragoza   North Hollywood, CA0:09:42 202610  119 Team WM
33581.03Roberto Atendido   Phoenix, AZ0:09:44 163913  110 Team Vitesse
34582.31Scott Lefler   Tempe, AZ0:09:50 192898  109 Procon / 1st National Bank of AZ
35583.59Jose Velazco   Coolidge, AZ0:09:57 191841  121 ECFA/ Honeywell
36584.87Sujeet Karna   Scottsdale, AZ0:09:58 190308  105 Procon/1st National Bank of Arizona
37586.15Bruce Gerdes   El Paso, TX0:10:35 49948  135 TEAM EL PASO
38587.44Brian Meyer   Tucson, AZ0:11:16 220650  136 University of Arizona Cycling
39Mariano SILVA   0:23:03  114 TEAM EL PASO
40590.00Joe Ebenroth   Scottsdale, AZ0:28:03 246607  143 XXX Racing

Men - Cat 4

 Place Points NameCity, StateTime USAC #BibTeam
1540.00Bryan Schlegel   Tucson, AZ0:08:30 203915  251 Aggress
2541.04Ryan La Pier   Las Vegas, NV0:08:36 256814  211 NA
3542.08Robert Kern   Fresno, CA0:08:40 256487  212 NA
4543.12Matt Sniegowski   Phoenix, AZ0:08:41 244731  220 Taser
5544.17Chris Ramsey   Tucson, AZ0:08:42 165364  243 NA
6545.21Kyle Peppo   New York, NY0:08:49 231787  227 CRCA/Jonathan Adler Racing
7546.25Jeremy Wilson   Cottonwood, AZ0:08:50 237114  232 Red Rock Racing
8547.29Andrew Sniegowski   Phoenix, AZ0:08:51 233197  248 Taser
9548.33George Varhola   Tucson, AZ0:08:53 208689  236 Summit Velo
10549.38Bradley Senska   Sedona, AZ0:08:53 66363  246 Summit Velo
11550.42Alex Dossin   Cambridge, MA0:08:54 257532  249 Fort Lewis College Cycling
12551.46Miguel Folch   Tucson, AZ0:08:56 216006  218 
13552.50Richard Hutton   Tucson, AZ0:08:58 256865  213 Summit Velo
14553.54William Allender   Gilbert , AZ0:08:59 238128  202 Swiss American Racing
15554.58Keith Brodhagen   Phoenix, AZ0:08:59 257201  229 procon/1st national bank of az
16555.62Todd Lang   Collierville, TN0:09:00 202064  207 Red Rock Racing
17556.67Bill Harman   Tucson, AZ0:09:03 218198  247 Saguaro Velo
18557.71Troy Burns   Vail, AZ0:09:04 239690  206 Old Pueblo Velo
19558.75Matt French   Phoenix, AZ0:09:06 157544  219 Team WM
20559.79Patrick Wiatrolik   Clarkdale, AZ0:09:07 245390  217 Red Rock Racing
21560.83Mark Peters   Phoenix, AZ0:09:08 206159  224 Team Vitesse
22561.88Mark Bunz   Mesa, AZ0:09:09 142504  223 Procon / 1st National Bank of Arizona
23562.92Jarrod Barnes   San Antonio, TX0:09:15 89596  234 Procon / 1st National Bank of Arizona
24563.96Kyle D'Auria   Tucson, AZ0:09:16 206249  226 Waste Management
25565.00Eric Sheehan   Tucson, AZ0:09:17 195924  238 HLHAP
26566.04Rich Goedel   Tucson, AZ0:09:18 249884  214 Old Pueblo Velo
27567.08James Hemphill   Silver City, NM0:09:19 122007  233 BICI CLUB
28568.12Leo Masursky   Tucson, AZ0:09:21 208705  225 GST Racing
29569.17Doug Stewart   Tucson, AZ0:09:24 206577  241 Presteza
30570.21Greg Lippert   Camarillo, CA0:09:28 253679  235 Amgen
31571.25Judah Cain   Phoenix, AZ0:09:29 256553  230 Procon/1st National Bank of Arizona
32572.29Edward Gilligan   Tucson, AZ0:09:29 41964  240 GST Racing
33573.33Chris Arlia   Tucson, AZ0:09:31 237864  252 Summit Velo
34574.38Geoff Chalmers   Tempe, AZ0:09:32 206838  237 Team Vitesse
35575.42Zachary Schultz   Tucson, AZ0:09:32 251512  201 Eclipse
36576.46Marvin Makus   Tucson, AZ0:09:36 247801  221 Summit Velo
37577.50Eric Wasson   Phoenix, AZ0:09:37 237323  239 Green Mountain Sports
38578.54Aaron Mike   Tucson, AZ0:09:38 261757  250 Team WM
39579.58John Thaxton   Tucson, AZ0:09:41 35277  231 Old Pueblo Velo
40580.62Taylor Hansen   Queen Creek, AZ0:09:42 266465  209 NA
41581.67Kurt Garbe   Tucson, AZ0:09:45 261467  228 NA
42582.71Donald Domkowski   Tucson, AZ0:09:46 108665  242 Aggress
43583.75Pericles Wyatt   Tucson, AZ0:09:47 220190  216 Presteza
44584.79Peter Michaud   Tucson, AZ0:09:51 258249  215 Old Pueblo Velo
45585.83Wayne Moore   Tucson, AZ0:10:16 254383  204 Fair Wheel Racing Team
46586.88Mark Atkins   Tempe, AZ0:10:20 268329  222 Team Waste Management
47587.92Will Samsky   Scottsdale, AZ0:11:16 238140  203 Team WM
48588.96Brian Nichols   Tucson, AZ0:11:28 259622  244 Team Aggress
49590.00Tim Taylor   Spirit Lake, IA0:12:14 168688  208 NA

Men - Cat 5

 Place Points NameCity, StateTime USAC #BibTeam
1540.00breck schuler   Tucson, AZ0:08:25 271521  342 Team WM
2541.09Gavin Kivisto   Oro Valley0:08:32 249038  328 NA
3542.17Andre McNulty   Tucson, AZ0:08:36 260527  347 NA
4543.26Christopher Downs   Albuquerque, NM0:08:49 259748  338 Nob Hill Velo
5544.35richard stevens   Vail, AZ0:08:51 272759  306 Old Pueblo Velo
6545.43michael hand   Santa Clarita, CA0:08:52 263355  318 Santa Clarita Velo
7Alex STRICKLAND   0:08:55  348 El Grupo
8547.61Brandon Yost   Oro Vally, AZ0:09:00 271430  343 Team Rhino Racing
9548.70Jesse Seavers   Pinos Altos, NM0:09:00 274243  324 Sano Bici
10549.78Rafe Allen   Henderson, NV0:09:04 271824  312 Team Penta/Vegas Velo
11Ron STANACE   0:09:05  349 El Grupo
12551.96Robert Perez   Brawley, CA0:09:11 258658  309 Cimarrones Cycling
13Luis CHACON   0:09:11  320 P&S-Specialized
14554.13Chad Bakken   Lone Tree, CO0:09:13 273145  339 Eclipse Racing
15Joel CASTRO   0:09:13  323 P&S-Specialized
16556.30collin costello   Clarkdale, AZ0:09:13 272776  337 NA
17557.39Anthony Molieri   St Louis, MO0:09:17 257783  345 ASU Cycling
18558.48Richard Castro   Phoenix, AZ0:09:18 196932  310 southwest hand
19559.57Richard Horn   Tucson, AZ0:09:18 267483  311 NA
20560.65Michael Dziedzic   Scottsdale, AZ0:09:33 253798  317 Team WM
21561.74Pat Mause   Tucson, AZ0:09:35 273085  314 Summit Velo
22562.83Carl Wittig   Portsmouth, NH0:09:37 263239  340 Bike Barn Racing
23563.91Brad Erwin   Chandler, AZ0:09:38 266063  344 HLHAP
24565.00Ywaine Klix   Oro Valley, AZ0:09:39 273128  301 Old Pueblo Velo
25566.09Jeff McGaughey   Silver City, NM0:09:43 261221  326 Sano Bici / MasterCraft Metals
26567.17Sven Gunn   Tucson, AZ0:09:45 188040  305 Old Pueblo Velo
27568.26Steve Davenport   Tucson, AZ0:09:48 276284  308 Old Pueblo Velo
28569.35Paul Johnston   Tucson, AZ0:09:52 222060  313 summit velo
29570.43Stephen Atkins   Tempe, AZ0:09:55 272200  307 San Tan/Paragon
30571.52Dan Switlick   Granite Bay, CA0:09:55 271280  336 NA
31572.61john harris   Tucson, AZ0:10:01 276156  322 Unattached
32573.70william roberts   Tucson, AZ0:10:01 272783  303 Old Pueblo Velo
33Dean BECWAR   0:10:02  331 Preteza
34575.87Daniel Poore   Tucson, AZ0:10:03 245144  335 Old Pueblo Velo
35576.96Daniel Martin   Tucson, AZ0:10:05 204429  333 Summit Velo
36Tom SPENCE   0:10:08  304 Team Rhino
37579.13Layrd Olliff   Anchorage, AK0:10:09 255980  321 Swiss American
38Orba HALL   0:10:11  315 San Diego Bike Club
39581.30David Savoy   Tucson, AZ0:10:12 270620  332 Old Pueblo Velo
40582.39Mitchell Preston   Sapulpa, OK0:10:15 274207  316 NA
41583.48Jerrad Cooper   Flagstaff, AZ0:10:15 140267  325 unattached
42584.57Brian Botthof   Oro Valley, AZ0:10:28 244794  341 NA
43585.65Andy Pfannenstiel   Tucson, AZ0:10:33 275208  346 University of Arizona
44586.74Diuck Del Rio   Vail, AZ0:10:39 272722  330 Old Pueblo Velo
45587.83manuel garza   El Paso, TX0:10:40 272885  319 enzacta
46588.91Daniel Osborn   Tucson, AZ0:10:59 274701  334 Osborn Racing Inc
47590.00William Mattull   Tucson, AZ0:11:43 215613  302 Team 53X11 Coffee

Men - Junior - JR - 13-14

 Place Points NameCity, StateTime USAC #BibTeam
1Andrew GONZALES   0:09:27  663 NA
3565.00Tanner Olliff   Eagar, AZ0:11:17 266059  661 Swiss American
4Max KELLER CRONYN   0:11:47  664 El Grupo

Men - Junior - JR - 15-16

 Place Points NameCity, StateTime USAC #BibTeam
1Andrew TEMPLETON   0:09:40  675 KHSnm.com Junior Cycling Team
3Danny Pereida   Yuma, AZ0:10:59 275648  673 NA

Men - Junior - JR - 17-18

 Place Points NameCity, StateTime USAC #BibTeam
1522.00Alexander Quinones   Albuquerque, NM0:08:04 269414  811 Nob Hill Velo
2539.00Robert Chorost   Tucson, AZ0:08:44 272430  808 Syncardia
3556.00Aaron Lindflott   Tucson, AZ0:09:13 260529  812 Summit Velo
4573.00Christopher Wilkinson   Flagstaff, AZ0:09:25 260408  809 waste management
5590.00Ben Singletary   Clovis, NM0:09:55 198101  810 KHSnm.com Junior Cycling Team

Women - Masters - MR - 35-99

 Place Points NameCity, StateTime USAC #BibTeam
1540.00Johanna Roberts   Tucson, AZ0:08:58 108769  584 Southwest hand
2565.00Leslie O'Doherty   Tucson, AZ0:09:07 225549  583 Southwesthand
3590.00Maryclaire Rimron   Tucson, AZ0:09:49 71943  582 Summit Velo

Women - Cat 1/2

 Place Points NameCity, StateTime USAC #BibTeam
1536.00Melissa McWhirter (1 - Cat1)   Scottsdale, AZ0:08:16 223966  503 Colavita AZ
2539.18Sarah Swanson   Tucson, AZ0:08:38 219930  501 Summit Velo
3542.35Melanie Meyers   Flagstaff, AZ0:08:43 196731  504 Specialized Designs for Women/Bicycle Ha
4545.53Cari Higgins   Boulder, CO0:08:44 225441  518 America's Dairyland
5Leda COX   0:08:45  506 America's Dairyland
6551.88Neva Day   Manhattan Beach, CA0:08:46 218801  520 
7555.06Catherine Dickson   Glendale, AZ0:09:01 177668  516 Tribe Racing
8Clare VLAHOPOULOS   0:09:04  514 America's Dairyland
9561.41Jennifer Weaver   Miami Beach, FL0:09:11 87823  509 White Mountain Road Club
10564.59Kate Ross   Bristol, TN0:09:12 160047  508 America's Dairyland
11567.76Kristen Hetzel   Tucson, AZ0:09:20 239691  507 Summit Velo
12570.94Heidi Clayton   Phoenix, AZ0:09:23 155568  510 HLHAP
13574.12Carolyn Donnelly   Albuquerque, NM0:09:27 9795  517 Spokette Racing
14577.29Daniela Gandara   Alhambra, CA0:09:29 205934  512 COLAVITA NEW MEXICO
15580.47Rebekah Mullen   Fort Collins, CO0:09:31 221840  502 RMCEF Cycling
16ChloŽ BLACK   0:09:31  515 Trek/Landis
17586.82Margaret Williams   Los Angeles, CA0:09:42 185837  505 Specialized Designs for Women/Bicycle Ha
18590.00Colleen Whealdon-Haught (1 - Cat2)   Tucson, AZ0:09:42 220964  513 Summit Velo

Women - Cat 3

 Place Points NameCity, StateTime USAC #BibTeam
1529.00Laurie Mauderly   Bosque Farms, NM0:08:40 245559  536 NMVS
2532.81Cindy Sanchez   Tucson0:09:12 231145  542 Summit Velo
3536.62Catherine Robertson-Goodkin   Healdsburg, CA0:09:12 258429  543 Dolce Vita Cycling
4540.44Greta Neimanas   Colorado Springs, CO0:09:13 223804  540 xXx Racing-AthletiCo
5Spring CLEGG   0:09:14  531 Broadway Bikes
6548.06Liz Cash   Albuquerque, NM0:09:20 260546  534 Colavita NM
7551.88Sherry Phillips   Pittsboro, NC0:09:20 159555  532 fair wheel racing team
8555.69Lisa Tumminello   Steamboat Springs, CO0:09:21 184590  535 ColoBikeLaw.com
9559.50Carla Lohn   Phoenix, AZ0:09:22 268692  545 Procon Cycling/1st National Bank of Az
10563.31Carolyn Carbone   Tucson, AZ0:09:24 255571  544 Summit Velo
11567.12Corinna Pietruszynski   Tucson, AZ0:09:36 192082  541 Summit Velo
12570.94Meredith Peterson   Madison, WI0:09:39 248348  533 Summit Velo
13574.75Amanda Chavez   Tucson, AZ0:09:41 250985  546 Summit Velo
14578.56Katherine Farago   Mesa, AZ0:09:43 141474  537 Tribe Racing
15582.38Janelle Kellman   Sausalito, CA0:10:03 217916  539 Dolce Vita Cycling
16586.19Jessica Conner   San Francisco, CA0:10:43 181072  538 Dolce Vita Cycling
17590.00Allison Greening   Tucson, AZ0:10:49 222948  547 Spokette Racing

Women - Cat 4

 Place Points NameCity, StateTime USAC #BibTeam
1540.00Lisa Ribes   Tucson, AZ0:08:33 269054  557 Southwest Hand
2Siah HEMPHILL   0:09:23  552 NA
3548.33Mary Jo Ford   Tucson, AZ0:09:27 194560  556 Eclipse
4552.50Sabrina Savage   Mesa, AZ0:09:27 272258  554 White Mountain Road club/ Landis
5556.67Shannon Jones   Tucson, AZ0:09:56 235332  553 Summit Vello
6560.83Lauren Frisk   Virginia Beach, VA0:09:58 277295  558 NA
7Jennifer PULLEN   0:10:25  561 NA
8569.17Sue Rawley   Flagstaff, AZ0:10:31 29243  551 Red Rock Racing
9573.33Megan Fallon   Tucson, AZ0:10:34 277055  555 NA
10577.50Christina Carbone   Tucson, AZ0:10:35 196282  564 Summit Velo
11581.67Hillary Mathis   Oro Valley, AZ0:10:44 260518  562 Unattached
12585.83Kendra Sweet   Tampa, FL0:10:51 255719  560 Summit Velo
13590.00Cinthia Madrueno   Yuma, AZ0:14:11 273415  563 NA

Women - Junior - JR - 13-14

 Place Points NameCity, StateTime USAC #BibTeam
2Brianna Lindflott   Tucson, AZ0:11:00 270535  662 Summit Velo

Women - Junior - JR - 15-16

 Place Points NameCity, StateTime USAC #BibTeam
2Clarissa Freeman   Albuquerque, NM0:10:56 254762  674 KHSnm.com Junior Cycling Team

Report missing or incorrect license numbers

Volkswagen
ShimanoUSACDFSierra NevadaSpyBonk Breaker
UCI USA Cycling is the official governing body for all disciplines of competitive cycling in the United States. The 501c3, membership-based organization aims both to achieve sustained success in international cycling competition and to grow competitive cycling in America while delivering an exceptional customer experience.
View Children's Online Privacy Protection Policy
US Olympic Committee